Time;durP1;ratioP1;P1;durP2;ratioP2;P2;SDS_P1;SDS_P2;PMS_P1;PMS_P2;Temp;Humidity;BMP_temperature;BMP_pressure;BME280_temperature;BME280_humidity;BME280_pressure;Samples;Min_cycle;Max_cycle;Signal;HPM_P1;HPM_P2
2021/10/05 00:00:25;;;;;;;12.27;6.13;;;16.70;94.60;;;;;;4995849;28;20037;-68
2021/10/05 00:02:50;;;;;;;9.10;5.50;;;16.70;94.60;;;;;;5010574;28;20438;-68
2021/10/05 00:05:16;;;;;;;7.72;5.28;;;16.60;94.60;;;;;;5008196;28;20038;-68
2021/10/05 00:07:42;;;;;;;10.48;5.43;;;16.60;94.60;;;;;;5011580;28;20475;-68
2021/10/05 00:10:09;;;;;;;8.07;4.78;;;16.60;94.60;;;;;;5005121;28;20034;-69
2021/10/05 00:12:35;;;;;;;7.85;5.45;;;16.70;94.70;;;;;;5011029;28;20395;-69
2021/10/05 00:15:00;;;;;;;8.82;4.70;;;16.60;94.70;;;;;;5008696;28;20046;-69
2021/10/05 00:17:26;;;;;;;8.02;5.00;;;16.60;94.70;;;;;;5009761;28;20042;-69
2021/10/05 00:19:51;;;;;;;7.78;5.22;;;16.60;94.70;;;;;;4999000;28;20076;-70
2021/10/05 00:22:17;;;;;;;8.90;4.70;;;16.60;94.60;;;;;;5011752;28;20022;-69
2021/10/05 00:24:43;;;;;;;6.80;4.72;;;16.60;94.60;;;;;;4999901;28;20030;-69
2021/10/05 00:27:09;;;;;;;7.45;4.93;;;16.60;94.60;;;;;;5010002;28;20030;-69
2021/10/05 00:29:34;;;;;;;8.23;5.22;;;16.50;94.50;;;;;;5000855;28;20030;-69
2021/10/05 00:32:00;;;;;;;8.10;5.13;;;16.60;94.50;;;;;;5007288;28;20494;-69
2021/10/05 00:34:25;;;;;;;6.47;5.03;;;16.60;94.50;;;;;;5022046;28;20026;-69
2021/10/05 00:36:52;;;;;;;6.70;4.55;;;16.60;94.50;;;;;;5014759;28;20045;-69
2021/10/05 00:39:18;;;;;;;8.07;5.03;;;16.50;94.40;;;;;;5013920;28;20029;-69
2021/10/05 00:41:43;;;;;;;9.05;4.90;;;16.60;94.40;;;;;;5010980;28;20030;-69
2021/10/05 00:44:09;;;;;;;8.20;4.65;;;16.60;94.40;;;;;;5014012;28;20386;-69
2021/10/05 00:46:35;;;;;;;8.93;5.30;;;16.60;94.40;;;;;;5014917;28;20092;-69
2021/10/05 00:49:01;;;;;;;7.38;4.20;;;16.60;94.40;;;;;;5012006;28;20016;-69
2021/10/05 00:51:28;;;;;;;8.48;4.30;;;16.60;94.30;;;;;;5014512;28;20042;-69
2021/10/05 00:53:54;;;;;;;6.80;4.25;;;16.60;94.30;;;;;;5008012;28;20034;-69
2021/10/05 00:56:21;;;;;;;7.82;4.22;;;16.60;94.30;;;;;;5000563;28;20038;-69
2021/10/05 00:58:46;;;;;;;6.55;3.30;;;16.60;94.30;;;;;;4998116;28;20022;-69
2021/10/05 01:01:12;;;;;;;7.80;3.72;;;16.60;94.10;;;;;;5014356;28;20505;-69
2021/10/05 01:03:39;;;;;;;6.03;3.65;;;16.60;94.10;;;;;;5013712;28;20029;-69
2021/10/05 01:06:04;;;;;;;6.03;3.53;;;16.60;94.00;;;;;;5013967;28;20092;-69
2021/10/05 01:08:31;;;;;;;6.57;4.00;;;16.60;94.00;;;;;;5013736;28;20430;-69
2021/10/05 01:10:57;;;;;;;6.65;3.80;;;16.60;93.90;;;;;;5007211;28;20566;-70
2021/10/05 01:13:22;;;;;;;9.05;4.30;;;16.60;93.90;;;;;;5013883;28;20108;-69
2021/10/05 01:15:48;;;;;;;8.00;4.25;;;16.50;93.80;;;;;;5013786;28;20030;-69
2021/10/05 01:18:14;;;;;;;5.60;3.30;;;16.60;93.80;;;;;;5012917;28;20382;-69
2021/10/05 01:21:02;;;;;;;9.02;3.92;;;16.50;93.80;;;;;;5012564;28;20030;-70
2021/10/05 01:23:29;;;;;;;8.77;3.55;;;16.50;93.90;;;;;;5009201;28;20026;-69
2021/10/05 01:25:55;;;;;;;5.85;3.28;;;16.50;93.80;;;;;;5014475;28;20034;-69
2021/10/05 01:28:22;;;;;;;6.55;3.55;;;16.50;93.80;;;;;;5012531;28;20026;-69
2021/10/05 01:30:48;;;;;;;9.63;3.63;;;16.50;93.70;;;;;;4994867;28;20074;-69
2021/10/05 01:33:14;;;;;;;8.63;4.32;;;16.50;93.70;;;;;;5009195;28;20053;-69
2021/10/05 01:35:40;;;;;;;5.00;3.45;;;16.50;93.60;;;;;;5012912;28;20367;-68
2021/10/05 01:38:06;;;;;;;7.70;3.50;;;16.50;93.70;;;;;;5013722;28;20020;-69
2021/10/05 01:40:32;;;;;;;5.85;2.95;;;16.50;93.60;;;;;;4995808;28;20026;-68
2021/10/05 01:42:57;;;;;;;8.95;3.90;;;16.50;93.50;;;;;;4994620;28;20015;-69
2021/10/05 01:45:23;;;;;;;6.53;2.67;;;16.50;93.60;;;;;;5009009;28;20042;-69
2021/10/05 01:47:49;;;;;;;5.60;3.10;;;16.50;93.50;;;;;;4994309;28;20045;-69
2021/10/05 01:50:14;;;;;;;6.28;3.33;;;16.50;93.50;;;;;;5005671;28;20026;-68
2021/10/05 01:52:40;;;;;;;7.85;3.00;;;16.50;93.50;;;;;;5011434;28;20026;-69
2021/10/05 01:55:07;;;;;;;7.05;2.58;;;16.50;93.60;;;;;;5012762;28;20037;-69
2021/10/05 01:57:33;;;;;;;5.43;2.88;;;16.50;93.70;;;;;;5009269;28;20033;-69
2021/10/05 01:59:59;;;;;;;7.22;2.80;;;16.50;93.60;;;;;;5008050;28;20463;-69
2021/10/05 02:02:25;;;;;;;4.93;2.83;;;16.50;93.70;;;;;;5008366;28;20116;-69
2021/10/05 02:04:51;;;;;;;6.20;2.80;;;16.40;93.60;;;;;;5010095;28;20037;-69
2021/10/05 02:07:16;;;;;;;5.20;2.63;;;16.40;93.60;;;;;;5010488;28;20065;-69
2021/10/05 02:09:47;;;;;;;6.90;2.47;;;16.40;93.60;;;;;;5008555;28;20073;-69
2021/10/05 02:12:15;;;;;;;7.10;2.70;;;16.40;93.60;;;;;;5010465;28;20041;-68
2021/10/05 02:14:41;;;;;;;8.43;3.55;;;16.40;93.60;;;;;;4993826;28;20126;-68
2021/10/05 02:17:07;;;;;;;7.38;3.22;;;16.40;93.60;;;;;;4994589;28;20026;-68
2021/10/05 02:19:32;;;;;;;5.35;2.63;;;16.40;93.60;;;;;;5012277;28;20371;-68
2021/10/05 02:21:58;;;;;;;7.65;2.72;;;16.40;93.70;;;;;;5011356;28;20030;-68
2021/10/05 02:26:50;;;;;;;5.53;2.78;;;16.30;93.70;;;;;;5011256;28;20029;-68
2021/10/05 02:29:16;;;;;;;5.07;2.70;;;16.40;93.80;;;;;;5008170;28;20049;-68
2021/10/05 02:31:43;;;;;;;6.05;2.67;;;16.30;93.80;;;;;;4999017;28;20042;-68
2021/10/05 02:34:09;;;;;;;5.30;2.97;;;16.30;94.00;;;;;;5011665;28;20030;-69
2021/10/05 02:36:35;;;;;;;5.20;2.78;;;16.30;93.70;;;;;;5012169;28;20107;-69
2021/10/05 02:39:00;;;;;;;5.13;2.40;;;16.30;93.80;;;;;;5009030;28;20045;-68
2021/10/05 02:41:26;;;;;;;8.32;2.58;;;16.30;93.90;;;;;;4998250;28;20499;-68
2021/10/05 02:43:51;;;;;;;3.03;1.95;;;16.30;93.80;;;;;;5006898;28;20033;-68
2021/10/05 02:46:17;;;;;;;7.20;3.03;;;16.30;93.90;;;;;;5013316;28;20037;-69
2021/10/05 02:48:42;;;;;;;7.15;2.30;;;16.30;93.80;;;;;;5009639;28;20034;-68
2021/10/05 02:51:08;;;;;;;5.25;2.55;;;16.30;93.80;;;;;;5013285;28;20117;-68
2021/10/05 02:53:33;;;;;;;5.13;2.05;;;16.30;93.80;;;;;;5009976;28;20033;-68
2021/10/05 02:55:59;;;;;;;7.57;2.40;;;16.30;93.70;;;;;;5012880;28;20029;-69
2021/10/05 02:58:24;;;;;;;3.72;2.00;;;16.30;93.60;;;;;;4997521;28;20386;-68
2021/10/05 03:00:50;;;;;;;5.07;2.25;;;16.20;93.60;;;;;;4993181;28;20427;-68
2021/10/05 03:03:15;;;;;;;5.35;2.70;;;16.20;93.60;;;;;;4994105;28;20034;-68
2021/10/05 03:05:41;;;;;;;7.97;2.50;;;16.20;93.60;;;;;;4995918;28;20041;-69
2021/10/05 03:08:07;;;;;;;5.13;2.30;;;16.20;93.60;;;;;;4993194;28;20034;-68
2021/10/05 03:10:34;;;;;;;5.38;2.33;;;16.20;93.60;;;;;;4992620;28;20490;-68
2021/10/05 03:13:00;;;;;;;5.55;2.00;;;16.20;93.60;;;;;;4999899;28;20386;-69
2021/10/05 03:15:25;;;;;;;5.97;2.10;;;16.20;93.60;;;;;;5012304;28;20026;-68
2021/10/05 03:17:51;;;;;;;5.78;1.77;;;16.10;93.50;;;;;;5009565;28;20079;-68
2021/10/05 03:20:16;;;;;;;4.50;1.85;;;16.10;93.60;;;;;;5012614;28;20033;-68
2021/10/05 03:22:42;;;;;;;7.82;2.13;;;16.00;93.60;;;;;;5008617;28;20018;-69
2021/10/05 03:25:08;;;;;;;10.68;2.60;;;16.00;93.50;;;;;;5009800;28;20436;-69
2021/10/05 03:27:35;;;;;;;6.53;2.47;;;16.00;93.50;;;;;;5010357;28;20030;-69
2021/10/05 03:30:02;;;;;;;4.75;1.98;;;16.00;93.50;;;;;;5011174;28;20391;-69
2021/10/05 03:32:28;;;;;;;4.43;2.00;;;16.00;93.50;;;;;;5009658;28;20022;-69
2021/10/05 03:34:53;;;;;;;5.70;2.20;;;15.90;93.50;;;;;;5011589;28;20025;-69
2021/10/05 03:37:18;;;;;;;6.93;2.42;;;16.00;93.50;;;;;;5008710;28;20030;-69
2021/10/05 03:39:44;;;;;;;6.78;2.20;;;15.90;93.50;;;;;;5012094;28;20021;-69
2021/10/05 03:42:09;;;;;;;8.82;2.60;;;15.90;93.70;;;;;;5004610;28;20109;-69
2021/10/05 03:44:35;;;;;;;6.38;2.08;;;15.80;93.70;;;;;;5010759;28;20025;-69
2021/10/05 03:47:01;;;;;;;4.32;1.77;;;15.90;93.70;;;;;;5009831;28;20117;-69
2021/10/05 03:49:26;;;;;;;6.97;2.08;;;15.80;93.80;;;;;;4992908;28;20033;-69
2021/10/05 03:51:52;;;;;;;4.65;1.88;;;15.80;93.80;;;;;;5006098;28;20117;-69
2021/10/05 03:54:17;;;;;;;3.15;1.67;;;15.80;93.90;;;;;;5010231;28;20048;-69
2021/10/05 03:56:43;;;;;;;5.63;2.20;;;15.80;93.90;;;;;;5011283;28;20096;-69
2021/10/05 03:59:10;;;;;;;6.43;1.90;;;15.80;93.90;;;;;;4993024;28;20038;-69
2021/10/05 04:01:35;;;;;;;3.95;2.13;;;15.80;93.90;;;;;;5003515;28;20030;-68
2021/10/05 04:04:01;;;;;;;5.35;1.88;;;15.70;94.00;;;;;;5008751;28;20477;-69
2021/10/05 04:06:26;;;;;;;6.20;1.92;;;15.70;94.10;;;;;;5005701;28;20108;-68
2021/10/05 04:08:52;;;;;;;8.02;2.53;;;15.70;94.30;;;;;;5012325;28;20034;-68
2021/10/05 04:11:17;;;;;;;4.85;2.00;;;15.70;94.30;;;;;;5017286;28;20034;-68
2021/10/05 04:13:43;;;;;;;5.68;2.30;;;15.60;94.30;;;;;;5016703;28;20033;-68
2021/10/05 04:16:08;;;;;;;5.50;2.13;;;15.60;94.30;;;;;;5017000;28;20446;-68
2021/10/05 04:18:34;;;;;;;4.45;2.15;;;15.60;94.50;;;;;;5015479;28;20022;-69
2021/10/05 04:20:59;;;;;;;5.65;2.13;;;15.60;94.60;;;;;;5018052;28;20034;-68
2021/10/05 04:23:25;;;;;;;2.92;1.88;;;15.60;94.60;;;;;;5016339;28;20379;-69
2021/10/05 04:25:51;;;;;;;7.53;2.20;;;15.60;94.70;;;;;;5018233;28;20030;-68
2021/10/05 04:28:16;;;;;;;2.97;2.00;;;15.60;94.90;;;;;;5015679;28;20022;-68
2021/10/05 04:30:42;;;;;;;6.07;2.13;;;15.50;95.00;;;;;;5017763;28;20041;-69
2021/10/05 04:33:08;;;;;;;2.70;1.90;;;15.50;95.20;;;;;;5012112;28;20550;-69
2021/10/05 04:35:33;;;;;;;4.78;1.70;;;15.40;95.20;;;;;;5018009;28;20157;-68
2021/10/05 04:37:59;;;;;;;6.00;1.88;;;15.40;95.30;;;;;;5007996;28;20475;-68
2021/10/05 04:40:24;;;;;;;4.50;1.90;;;15.40;95.30;;;;;;4998522;28;20081;-69
2021/10/05 04:42:50;;;;;;;6.00;1.90;;;15.40;95.50;;;;;;5002547;28;20119;-69
2021/10/05 04:45:16;;;;;;;4.05;1.88;;;15.40;95.60;;;;;;5017657;28;20505;-69
2021/10/05 04:47:41;;;;;;;6.35;2.00;;;15.40;95.70;;;;;;5015225;28;20040;-69
2021/10/05 04:50:09;;;;;;;6.22;2.20;;;15.40;95.80;;;;;;5018185;28;20028;-68
2021/10/05 04:52:34;;;;;;;6.32;2.60;;;15.40;95.80;;;;;;5015121;28;20025;-67
2021/10/05 04:55:00;;;;;;;4.28;2.05;;;15.40;95.90;;;;;;5017645;28;20129;-67
2021/10/05 04:57:26;;;;;;;11.60;2.50;;;15.40;96.10;;;;;;5015101;28;20124;-67
2021/10/05 04:59:51;;;;;;;7.13;2.78;;;15.40;96.10;;;;;;5017360;28;20418;-67
2021/10/05 05:02:17;;;;;;;5.60;2.20;;;15.40;96.20;;;;;;5020086;28;20352;-68
2021/10/05 05:04:42;;;;;;;7.90;2.53;;;15.40;96.30;;;;;;5021633;28;20033;-68
2021/10/05 05:07:08;;;;;;;6.25;1.98;;;15.40;96.40;;;;;;5014259;28;20022;-68
2021/10/05 05:09:33;;;;;;;5.57;2.20;;;15.40;96.50;;;;;;5006784;28;20468;-68
2021/10/05 05:11:59;;;;;;;4.90;2.33;;;15.40;96.60;;;;;;5000890;28;20057;-68
2021/10/05 05:14:25;;;;;;;6.78;2.63;;;15.40;96.70;;;;;;5017324;28;20025;-68
2021/10/05 05:16:50;;;;;;;5.78;2.28;;;15.40;96.90;;;;;;5010709;28;20085;-68
2021/10/05 05:19:16;;;;;;;4.97;2.53;;;15.40;97.00;;;;;;5016828;28;20766;-68
2021/10/05 05:21:42;;;;;;;4.95;2.67;;;15.40;97.10;;;;;;5012912;28;20022;-69
2021/10/05 05:24:08;;;;;;;5.30;2.47;;;15.40;97.20;;;;;;5011377;28;20041;-69
2021/10/05 05:26:33;;;;;;;5.97;3.08;;;15.40;97.30;;;;;;5012091;28;20490;-70
2021/10/05 05:28:58;;;;;;;7.40;3.17;;;15.40;97.40;;;;;;5012238;28;20048;-69
2021/10/05 05:31:24;;;;;;;8.30;3.15;;;15.30;97.40;;;;;;5013393;28;20084;-70
2021/10/05 05:33:50;;;;;;;8.60;2.85;;;15.30;97.50;;;;;;5011876;28;20030;-71
2021/10/05 05:36:15;;;;;;;8.15;3.95;;;15.30;97.50;;;;;;5013344;28;20516;-68
2021/10/05 05:38:41;;;;;;;7.15;3.22;;;15.30;97.60;;;;;;4999327;28;20164;-68
2021/10/05 05:41:07;;;;;;;6.47;2.97;;;15.30;97.70;;;;;;5006242;28;20033;-68
2021/10/05 05:43:32;;;;;;;4.93;3.20;;;15.30;97.90;;;;;;5013231;28;20044;-68
2021/10/05 05:45:58;;;;;;;10.73;3.63;;;15.30;97.90;;;;;;5013362;28;20034;-68
2021/10/05 05:48:24;;;;;;;6.90;3.22;;;15.30;98.00;;;;;;5001782;28;20575;-69
2021/10/05 05:50:49;;;;;;;6.75;3.17;;;15.40;98.00;;;;;;5002652;28;20026;-70
2021/10/05 05:53:15;;;;;;;7.10;3.50;;;15.40;98.10;;;;;;5012752;28;20026;-70
2021/10/05 05:55:41;;;;;;;4.88;3.33;;;15.30;98.10;;;;;;5012161;28;20153;-69
2021/10/05 05:58:14;;;;;;;6.47;3.60;;;15.30;98.20;;;;;;5012040;28;20056;-70
2021/10/05 06:00:41;;;;;;;5.70;3.33;;;15.30;98.30;;;;;;5011704;28;20632;-70
2021/10/05 06:03:07;;;;;;;8.93;4.15;;;15.30;98.40;;;;;;5003133;28;20334;-70
2021/10/05 06:05:33;;;;;;;5.97;3.50;;;15.30;98.40;;;;;;5008859;28;20046;-68
2021/10/05 06:07:59;;;;;;;6.03;3.47;;;15.30;98.40;;;;;;5008203;28;20069;-71
2021/10/05 06:10:25;;;;;;;8.55;3.58;;;15.40;98.50;;;;;;5007295;28;20037;-69
2021/10/05 06:12:50;;;;;;;8.85;3.70;;;15.40;98.50;;;;;;4996293;28;20023;-68
2021/10/05 06:15:17;;;;;;;7.03;3.33;;;15.40;98.50;;;;;;5005124;28;20029;-67
2021/10/05 06:17:44;;;;;;;9.13;4.10;;;15.40;98.60;;;;;;5010818;28;20441;-67
2021/10/05 06:20:16;;;;;;;7.05;3.63;;;15.40;98.70;;;;;;5010023;28;20021;-67
2021/10/05 06:22:42;;;;;;;6.13;3.50;;;15.40;98.70;;;;;;5005853;28;20041;-66
2021/10/05 06:25:14;;;;;;;12.18;4.25;;;15.40;98.70;;;;;;5009697;28;20033;-66
2021/10/05 06:27:40;;;;;;;10.40;4.22;;;15.50;98.90;;;;;;4997403;28;20044;-67
2021/10/05 06:30:07;;;;;;;8.32;3.75;;;15.50;98.90;;;;;;5009462;28;20030;-66
2021/10/05 06:32:33;;;;;;;8.13;3.83;;;15.50;98.90;;;;;;5001409;28;20042;-66
2021/10/05 06:34:59;;;;;;;7.07;4.10;;;15.50;98.90;;;;;;5001777;28;20034;-67
2021/10/05 06:37:24;;;;;;;5.55;3.65;;;15.50;98.90;;;;;;5000026;28;20100;-67
2021/10/05 06:39:50;;;;;;;7.97;4.28;;;15.60;98.90;;;;;;5002725;28;20076;-67
2021/10/05 06:42:15;;;;;;;9.07;4.50;;;15.50;98.90;;;;;;4997180;28;20510;-67
2021/10/05 06:44:42;;;;;;;7.68;4.45;;;15.50;99.00;;;;;;5008094;28;20044;-67
2021/10/05 06:47:07;;;;;;;7.93;4.30;;;15.50;99.10;;;;;;5006039;28;20025;-67
2021/10/05 06:49:33;;;;;;;9.15;4.70;;;15.50;99.20;;;;;;4994591;28;20035;-66
2021/10/05 06:52:00;;;;;;;8.43;5.50;;;15.40;99.30;;;;;;5000011;28;20029;-67
2021/10/05 06:54:26;;;;;;;7.50;4.30;;;15.40;99.30;;;;;;5001665;28;20050;-67
2021/10/05 06:56:51;;;;;;;10.85;4.60;;;15.40;99.30;;;;;;5001325;28;20502;-67
2021/10/05 06:59:17;;;;;;;9.65;4.57;;;15.50;99.40;;;;;;5007923;28;20025;-68
2021/10/05 07:01:43;;;;;;;8.30;4.88;;;15.40;99.40;;;;;;5004608;28;20113;-68
2021/10/05 07:04:10;;;;;;;11.75;5.53;;;15.40;99.40;;;;;;4999669;28;20080;-68
2021/10/05 07:06:37;;;;;;;8.77;5.25;;;15.40;99.50;;;;;;5001520;28;20034;-67
2021/10/05 07:09:04;;;;;;;9.10;5.47;;;15.40;99.80;;;;;;5005875;28;20037;-67
2021/10/05 07:11:29;;;;;;;9.82;5.50;;;15.40;99.60;;;;;;5002515;28;20387;-69
2021/10/05 07:13:55;;;;;;;8.93;5.15;;;15.40;99.70;;;;;;4998105;28;20026;-69
2021/10/05 07:16:20;;;;;;;8.20;5.93;;;15.50;99.80;;;;;;5004169;28;20505;-69
2021/10/05 07:18:46;;;;;;;8.10;5.30;;;15.50;99.80;;;;;;5001809;28;20042;-70
2021/10/05 07:21:12;;;;;;;9.57;5.72;;;15.60;99.80;;;;;;5001081;28;20021;-70
2021/10/05 07:23:37;;;;;;;6.82;4.85;;;15.70;99.70;;;;;;5004996;28;20529;-70
2021/10/05 07:26:03;;;;;;;9.82;5.50;;;15.70;99.70;;;;;;5000836;28;20076;-69
2021/10/05 07:28:28;;;;;;;10.57;5.88;;;15.80;99.70;;;;;;4996268;28;20022;-69
2021/10/05 07:30:54;;;;;;;9.02;5.50;;;15.80;99.80;;;;;;5004527;28;20038;-69
2021/10/05 07:33:23;;;;;;;10.00;6.25;;;15.80;99.70;;;;;;5016458;28;20096;-70
2021/10/05 07:35:49;;;;;;;10.88;5.82;;;15.80;99.70;;;;;;5007109;28;20538;-69
2021/10/05 07:38:14;;;;;;;10.32;6.95;;;15.80;99.70;;;;;;5010435;28;20165;-70
2021/10/05 07:40:40;;;;;;;8.75;6.15;;;15.80;99.80;;;;;;5005751;28;20033;-70
2021/10/05 07:43:05;;;;;;;8.93;6.43;;;15.80;99.80;;;;;;5004727;28;20477;-70
2021/10/05 07:45:32;;;;;;;11.60;7.30;;;15.90;99.80;;;;;;5008112;28;20046;-69
2021/10/05 07:47:58;;;;;;;11.63;7.05;;;15.90;99.80;;;;;;5006111;28;20025;-70
2021/10/05 07:50:24;;;;;;;12.43;7.45;;;15.90;99.80;;;;;;5003457;28;20030;-70
2021/10/05 07:52:50;;;;;;;10.27;7.30;;;15.90;99.90;;;;;;5007634;28;20053;-70
2021/10/05 07:55:15;;;;;;;14.80;7.93;;;15.90;99.90;;;;;;5003604;28;20042;-70
2021/10/05 07:57:41;;;;;;;11.45;7.57;;;15.90;99.90;;;;;;5001358;28;20038;-70
2021/10/05 08:00:11;;;;;;;11.30;7.80;;;15.90;99.90;;;;;;5009404;28;20032;-70
2021/10/05 08:02:37;;;;;;;15.25;8.27;;;16.00;99.90;;;;;;5007124;28;20028;-70
2021/10/05 08:05:03;;;;;;;13.55;10.05;;;16.00;99.90;;;;;;5008072;28;20030;-70
2021/10/05 08:07:29;;;;;;;14.60;8.40;;;16.00;99.90;;;;;;5004867;28;20080;-74
2021/10/05 08:09:56;;;;;;;11.85;8.82;;;16.00;99.90;;;;;;5001680;28;20097;-70
2021/10/05 08:12:23;;;;;;;13.38;9.70;;;16.00;99.90;;;;;;4999786;28;20089;-71
2021/10/05 08:14:49;;;;;;;14.25;10.25;;;16.00;99.90;;;;;;5000770;28;20113;-71
2021/10/05 08:17:15;;;;;;;14.60;10.68;;;16.10;99.90;;;;;;5007362;28;20041;-70
2021/10/05 08:19:40;;;;;;;18.35;10.73;;;16.10;99.90;;;;;;4999375;28;20026;-70
2021/10/05 08:22:06;;;;;;;12.93;10.10;;;16.10;99.90;;;;;;5000329;28;20505;-70
2021/10/05 08:24:32;;;;;;;15.57;10.93;;;16.10;99.90;;;;;;5002059;28;20034;-70
2021/10/05 08:26:57;;;;;;;17.33;12.10;;;16.10;99.90;;;;;;4999940;28;20062;-71
2021/10/05 08:29:23;;;;;;;12.88;10.05;;;16.20;99.90;;;;;;5006059;28;20060;-71
2021/10/05 08:31:49;;;;;;;16.83;11.23;;;16.20;99.90;;;;;;5004075;28;20031;-70
2021/10/05 08:34:16;;;;;;;15.32;10.85;;;16.20;99.90;;;;;;4998289;28;20537;-71
2021/10/05 08:36:42;;;;;;;13.15;10.65;;;16.20;99.90;;;;;;5009366;28;20034;-69
2021/10/05 08:39:10;;;;;;;22.88;13.70;;;16.20;99.90;;;;;;5000927;28;20084;-69
2021/10/05 08:41:37;;;;;;;20.25;13.43;;;16.20;99.90;;;;;;4994931;28;20058;-71
2021/10/05 08:44:02;;;;;;;18.05;12.23;;;16.20;99.90;;;;;;5004685;28;20030;-69
2021/10/05 08:46:34;;;;;;;17.02;12.15;;;16.20;99.90;;;;;;4994160;28;20139;-69
2021/10/05 08:49:00;;;;;;;20.92;14.27;;;16.30;99.90;;;;;;5009399;28;20022;-69
2021/10/05 08:51:26;;;;;;;18.70;13.75;;;16.30;99.90;;;;;;5003383;28;20034;-69
2021/10/05 08:53:51;;;;;;;19.00;13.85;;;16.30;99.90;;;;;;5002917;28;20038;-69
2021/10/05 08:56:17;;;;;;;21.30;15.95;;;16.30;99.90;;;;;;5002659;28;20160;-67
2021/10/05 08:58:42;;;;;;;20.80;14.85;;;16.30;99.90;;;;;;5010964;28;20465;-68
2021/10/05 09:01:11;;;;;;;22.52;15.73;;;16.40;99.90;;;;;;5012133;28;20022;-69
2021/10/05 09:03:38;;;;;;;19.48;14.77;;;16.40;99.90;;;;;;5007285;28;20034;-69
2021/10/05 09:06:11;;;;;;;19.13;14.57;;;16.40;99.90;;;;;;5009690;28;20042;-69
2021/10/05 09:08:40;;;;;;;20.45;14.40;;;16.50;99.90;;;;;;5010243;28;20022;-69
2021/10/05 09:11:06;;;;;;;22.17;14.30;;;16.50;99.90;;;;;;5011024;28;20025;-69
2021/10/05 09:13:33;;;;;;;19.25;14.50;;;16.50;99.90;;;;;;5007291;28;20057;-68
2021/10/05 09:15:59;;;;;;;20.17;14.45;;;16.60;99.90;;;;;;5012198;28;20112;-68
2021/10/05 09:18:25;;;;;;;21.02;15.13;;;16.70;99.90;;;;;;5010719;28;20113;-68
2021/10/05 09:20:50;;;;;;;22.20;14.63;;;16.70;99.90;;;;;;4999321;28;20027;-67
2021/10/05 09:23:16;;;;;;;20.05;14.30;;;16.70;99.90;;;;;;5009181;28;20026;-70
2021/10/05 09:25:50;;;;;;;22.67;15.07;;;16.70;99.90;;;;;;5004546;28;20038;-68
2021/10/05 09:28:22;;;;;;;21.38;14.88;;;16.80;99.90;;;;;;5000983;28;20117;-68
2021/10/05 09:31:04;;;;;;;20.00;14.57;;;16.80;99.90;;;;;;5010202;28;20092;-68
2021/10/05 09:33:30;;;;;;;24.25;15.02;;;16.80;99.90;;;;;;5005805;28;20026;-69
2021/10/05 09:35:57;;;;;;;23.95;16.10;;;16.90;99.90;;;;;;5003758;28;20034;-68
2021/10/05 09:38:24;;;;;;;24.20;16.80;;;16.80;99.90;;;;;;4999844;28;20061;-67
2021/10/05 09:41:19;;;;;;;21.10;15.48;;;16.90;99.90;;;;;;5008369;28;20017;-67
2021/10/05 09:43:44;;;;;;;24.38;18.77;;;16.90;99.90;;;;;;5002133;28;20372;-66
2021/10/05 09:46:15;;;;;;;33.38;21.20;;;16.90;99.90;;;;;;5005808;28;20041;-68
2021/10/05 09:48:43;;;;;;;29.95;21.55;;;16.90;99.90;;;;;;5008975;28;20030;-67
2021/10/05 09:51:34;;;;;;;22.42;17.35;;;16.90;99.90;;;;;;5002772;28;20026;-68
2021/10/05 09:54:00;;;;;;;32.10;20.63;;;17.00;99.90;;;;;;4999066;28;20121;-67
2021/10/05 09:56:28;;;;;;;25.38;19.52;;;17.00;99.90;;;;;;5003067;28;20494;-67
2021/10/05 09:58:56;;;;;;;23.77;17.63;;;17.00;99.90;;;;;;4996970;28;20066;-68
2021/10/05 10:01:23;;;;;;;24.13;17.85;;;17.00;99.90;;;;;;5004352;28;20056;-67
2021/10/05 10:03:50;;;;;;;33.95;22.33;;;17.00;99.90;;;;;;5011142;28;20041;-67
2021/10/05 10:06:17;;;;;;;28.17;20.40;;;17.10;99.90;;;;;;5010983;28;20430;-68
2021/10/05 10:08:45;;;;;;;23.58;17.92;;;17.10;99.90;;;;;;5002295;28;20787;-67
2021/10/05 10:11:11;;;;;;;25.95;18.95;;;17.10;99.90;;;;;;4995345;28;20113;-68
2021/10/05 10:13:37;;;;;;;26.65;19.83;;;17.10;99.90;;;;;;4996620;28;20117;-68
2021/10/05 10:16:03;;;;;;;25.20;19.13;;;17.10;99.90;;;;;;5007516;28;20512;-68
2021/10/05 10:18:28;;;;;;;25.35;19.55;;;17.10;99.90;;;;;;5009187;28;20552;-67
2021/10/05 10:21:10;;;;;;;25.77;18.85;;;17.10;99.90;;;;;;5002040;28;20030;-67
2021/10/05 10:23:38;;;;;;;28.38;19.10;;;17.10;99.90;;;;;;5033586;28;20429;-67
2021/10/05 10:26:06;;;;;;;23.92;18.88;;;17.10;99.90;;;;;;5008626;28;20126;-67
2021/10/05 10:28:38;;;;;;;25.08;18.65;;;17.10;99.90;;;;;;5013158;28;20037;-67
2021/10/05 10:31:10;;;;;;;27.15;20.33;;;17.10;99.90;;;;;;5011343;28;20053;-68
2021/10/05 10:33:52;;;;;;;27.05;20.35;;;17.10;99.90;;;;;;4993483;28;20073;-67
2021/10/05 10:36:36;;;;;;;28.60;19.70;;;17.20;99.90;;;;;;5006989;28;20213;-67
2021/10/05 10:39:07;;;;;;;27.27;19.77;;;17.20;99.90;;;;;;5012690;28;20037;-67
2021/10/05 10:41:33;;;;;;;31.38;22.08;;;17.10;99.90;;;;;;5012967;28;20060;-68
2021/10/05 10:44:05;;;;;;;28.55;20.30;;;17.10;99.90;;;;;;5010631;28;20028;-68
2021/10/05 10:46:36;;;;;;;30.50;19.98;;;17.20;99.90;;;;;;5004880;28;20116;-68
2021/10/05 10:49:04;;;;;;;24.73;20.10;;;17.20;99.90;;;;;;5012356;28;20033;-68
2021/10/05 10:51:38;;;;;;;27.65;21.40;;;17.20;99.90;;;;;;5012746;28;20033;-67
2021/10/05 10:54:13;;;;;;;29.92;20.50;;;17.20;99.90;;;;;;5010394;28;20030;-67
2021/10/05 10:56:40;;;;;;;25.15;21.08;;;17.20;99.90;;;;;;5008131;28;20389;-67
2021/10/05 10:59:10;;;;;;;25.70;19.83;;;17.20;99.90;;;;;;5008430;28;20030;-67
2021/10/05 11:01:45;;;;;;;25.20;20.08;;;17.20;99.90;;;;;;5012612;28;20025;-68
2021/10/05 11:04:11;;;;;;;31.20;21.52;;;17.20;99.90;;;;;;5010417;28;20467;-68
2021/10/05 11:06:38;;;;;;;28.95;20.38;;;17.20;99.90;;;;;;5011545;28;20482;-68
2021/10/05 11:09:06;;;;;;;28.55;21.50;;;17.30;99.90;;;;;;5012889;28;20022;-68
2021/10/05 11:11:42;;;;;;;27.77;21.17;;;17.20;99.90;;;;;;5011236;28;20367;-68
2021/10/05 11:14:12;;;;;;;27.60;20.38;;;17.20;99.90;;;;;;5010984;28;20030;-68
2021/10/05 11:16:39;;;;;;;29.00;20.13;;;17.30;99.90;;;;;;5010914;28;20386;-68
2021/10/05 11:19:07;;;;;;;30.35;21.85;;;17.30;99.90;;;;;;5002661;28;20092;-68
2021/10/05 11:21:36;;;;;;;30.85;22.35;;;17.30;99.90;;;;;;5012129;28;20494;-68
2021/10/05 11:24:02;;;;;;;30.58;20.48;;;17.30;99.90;;;;;;5011577;28;20561;-69
2021/10/05 11:26:38;;;;;;;30.27;21.75;;;17.30;99.90;;;;;;5012154;28;20066;-68
2021/10/05 11:29:05;;;;;;;31.17;23.00;;;17.30;99.90;;;;;;5000885;28;20030;-68
2021/10/05 11:31:48;;;;;;;30.05;21.08;;;17.30;99.90;;;;;;5003832;28;20383;-67
2021/10/05 11:34:15;;;;;;;28.27;20.55;;;17.30;99.90;;;;;;5011237;28;20051;-68
2021/10/05 11:36:41;;;;;;;32.85;21.25;;;17.30;99.90;;;;;;5012492;28;20441;-68
2021/10/05 11:39:08;;;;;;;27.67;19.80;;;17.40;99.90;;;;;;5021900;28;20057;-68
2021/10/05 11:41:40;;;;;;;29.65;21.55;;;17.40;99.90;;;;;;5026840;28;20045;-68
2021/10/05 11:44:18;;;;;;;28.75;21.38;;;17.40;99.90;;;;;;5010515;28;20033;-68
2021/10/05 11:46:58;;;;;;;31.02;22.63;;;17.40;99.90;;;;;;4992766;28;20541;-68
2021/10/05 11:49:26;;;;;;;30.38;22.75;;;17.40;99.90;;;;;;5006019;28;20072;-68
2021/10/05 11:51:54;;;;;;;30.60;21.52;;;17.50;99.90;;;;;;5008552;28;20540;-68
2021/10/05 11:54:26;;;;;;;28.52;20.90;;;17.50;99.90;;;;;;5010571;28;20620;-67
2021/10/05 11:56:52;;;;;;;31.75;21.52;;;17.50;99.90;;;;;;5010317;28;20475;-70
2021/10/05 11:59:26;;;;;;;30.38;22.48;;;17.50;99.90;;;;;;5010906;28;20032;-67
2021/10/05 12:01:57;;;;;;;30.63;22.33;;;17.50;99.90;;;;;;5010371;28;20558;-69
2021/10/05 12:04:24;;;;;;;30.95;23.65;;;17.50;99.90;;;;;;5005789;28;20483;-68
2021/10/05 12:06:53;;;;;;;27.52;21.52;;;17.60;99.90;;;;;;5010318;28;20038;-67
2021/10/05 12:09:24;;;;;;;35.45;23.40;;;17.60;99.90;;;;;;5011778;28;20076;-67
2021/10/05 12:11:51;;;;;;;31.40;22.73;;;17.60;99.90;;;;;;5010518;28;20552;-68
2021/10/05 12:14:18;;;;;;;33.78;23.92;;;17.60;99.90;;;;;;5010871;28;20504;-68
2021/10/05 12:17:00;;;;;;;34.75;23.88;;;17.60;99.90;;;;;;5010939;28;20026;-68
2021/10/05 12:19:27;;;;;;;32.05;24.15;;;17.60;99.90;;;;;;4999725;28;20121;-69
2021/10/05 12:21:54;;;;;;;33.08;24.52;;;17.60;99.90;;;;;;5004036;28;20025;-68
2021/10/05 12:24:20;;;;;;;35.75;24.73;;;17.70;99.90;;;;;;5008945;28;20053;-69
2021/10/05 12:26:51;;;;;;;33.58;23.38;;;17.60;99.90;;;;;;5010512;28;20034;-69
2021/10/05 12:29:17;;;;;;;36.75;25.10;;;17.70;99.90;;;;;;4999792;28;20026;-68
2021/10/05 12:31:53;;;;;;;33.80;23.25;;;17.70;99.90;;;;;;5005309;28;20045;-67
2021/10/05 12:34:19;;;;;;;34.97;23.85;;;17.70;99.90;;;;;;5005564;28;20041;-67
2021/10/05 12:36:47;;;;;;;41.03;26.70;;;17.70;99.90;;;;;;5008804;28;20045;-67
2021/10/05 12:39:16;;;;;;;42.30;26.88;;;17.70;99.90;;;;;;5010240;28;20406;-67